createdAt,value
2018-02-12T00:01:09.783Z,2.90
2018-02-12T00:06:12.684Z,2.90
2018-02-12T00:11:16.088Z,2.90
2018-02-12T00:16:19.482Z,2.80
2018-02-12T00:21:23.062Z,2.80
2018-02-12T00:26:25.660Z,2.80
2018-02-12T00:31:28.576Z,2.80
2018-02-12T00:36:32.054Z,2.80
2018-02-12T00:41:35.896Z,2.70
2018-02-12T00:46:38.504Z,2.70
2018-02-12T00:51:42.087Z,2.70
2018-02-12T00:56:45.436Z,2.60
2018-02-12T01:01:48.236Z,2.50
2018-02-12T01:06:50.857Z,2.50
2018-02-12T01:11:54.312Z,2.40
2018-02-12T01:16:57.694Z,2.40
2018-02-12T01:22:00.360Z,2.40
2018-02-12T01:27:02.946Z,2.50
2018-02-12T01:32:06.479Z,2.50
2018-02-12T01:37:09.070Z,2.50
2018-02-12T01:42:11.895Z,2.50
2018-02-12T01:47:14.596Z,2.50
2018-02-12T01:52:17.977Z,2.40
2018-02-12T01:57:21.368Z,2.20
2018-02-12T02:02:24.943Z,2.20
2018-02-12T02:07:27.742Z,2.20
2018-02-12T02:12:31.014Z,2.10
2018-02-12T02:17:33.598Z,2.10
2018-02-12T02:22:36.982Z,2.00
2018-02-12T02:27:39.578Z,2.10
2018-02-12T02:32:43.183Z,2.10
2018-02-12T02:37:45.875Z,2.00
2018-02-12T02:42:48.881Z,2.00
2018-02-12T02:47:52.261Z,1.80
2018-02-12T02:52:55.107Z,1.80
2018-02-12T02:57:57.738Z,1.80
2018-02-12T03:03:00.501Z,1.80
2018-02-12T03:08:03.881Z,1.70
2018-02-12T03:13:06.915Z,1.70
2018-02-12T03:18:10.324Z,1.60
2018-02-12T03:23:14.277Z,1.50
2018-02-12T03:28:16.870Z,1.50
2018-02-12T03:33:21.088Z,1.30
2018-02-12T03:38:23.712Z,1.30
2018-02-12T03:43:26.407Z,1.20
2018-02-12T03:48:29.044Z,1.10
2018-02-12T03:53:32.394Z,1.10
2018-02-12T03:58:34.983Z,1.10
2018-02-12T04:03:38.535Z,1.10
2018-02-12T04:08:41.933Z,1.00
2018-02-12T04:13:46.170Z,1.10
2018-02-12T04:18:48.768Z,1.10
2018-02-12T04:23:51.424Z,1.00
2018-02-12T04:28:54.046Z,0.90
2018-02-12T04:33:57.135Z,0.90
2018-02-12T04:38:59.770Z,0.90
2018-02-12T04:44:03.047Z,0.80
2018-02-12T04:49:05.678Z,0.80
2018-02-12T04:54:08.477Z,0.70
2018-02-12T04:59:11.092Z,0.70
2018-02-12T05:04:14.582Z,0.50
2018-02-12T05:09:17.200Z,0.70
2018-02-12T05:14:19.855Z,0.60
2018-02-12T05:19:22.461Z,0.50
2018-02-12T05:24:25.429Z,0.50
2018-02-12T05:29:28.802Z,0.50
2018-02-12T05:34:33.294Z,0.50
2018-02-12T05:39:35.946Z,0.60
2018-02-12T05:44:39.208Z,0.60
2018-02-12T05:49:41.814Z,0.80
2018-02-12T05:54:45.015Z,0.90
2018-02-12T05:59:47.715Z,1.00
2018-02-12T06:04:52.348Z,1.10
2018-02-12T06:09:55.764Z,1.00
2018-02-12T06:15:00.034Z,0.80
2018-02-12T06:20:02.676Z,0.80
2018-02-12T06:25:05.802Z,0.80
2018-02-12T06:30:08.465Z,0.70
2018-02-12T06:35:11.432Z,0.60
2018-02-12T06:40:14.063Z,0.60
2018-02-12T06:45:17.510Z,0.50
2018-02-12T06:50:20.157Z,0.70
2018-02-12T06:55:23.553Z,0.80
2018-02-12T07:00:26.947Z,0.90
2018-02-12T07:05:29.912Z,0.90
2018-02-12T07:10:32.515Z,1.00
2018-02-12T07:15:35.703Z,1.00
2018-02-12T07:20:38.318Z,1.10
2018-02-12T07:25:41.879Z,1.20
2018-02-12T07:30:44.498Z,1.30
2018-02-12T07:35:48.392Z,1.50
2018-02-12T07:40:51.026Z,1.40
2018-02-12T07:45:54.459Z,1.90
2018-02-12T07:50:57.085Z,1.90
2018-02-12T07:56:00.217Z,2.10
2018-02-12T08:01:02.865Z,2.30
2018-02-12T08:06:06.321Z,2.60
2018-02-12T08:11:08.947Z,2.60
2018-02-12T08:16:12.166Z,2.90
2018-02-12T08:21:14.895Z,3.00
2018-02-12T08:26:19.148Z,2.90
2018-02-12T08:31:21.744Z,2.80
2018-02-12T08:36:25.006Z,3.00
2018-02-12T08:41:27.631Z,3.20
2018-02-12T08:46:31.060Z,3.60
2018-02-12T08:51:33.684Z,3.60
2018-02-12T08:56:37.040Z,3.80
2018-02-12T09:01:41.171Z,4.10
2018-02-12T09:06:43.934Z,4.10
2018-02-12T09:11:46.569Z,3.70
2018-02-12T09:16:50.010Z,3.80
2018-02-12T09:21:53.403Z,3.80
2018-02-12T09:26:56.887Z,3.70
2018-02-12T09:31:59.520Z,3.90
2018-02-12T09:37:03.893Z,4.00
2018-02-12T09:42:07.318Z,4.00
2018-02-12T09:47:13.036Z,4.40
2018-02-12T09:52:15.984Z,4.40
2018-02-12T09:57:20.231Z,4.60
2018-02-12T10:02:22.822Z,4.60
2018-02-12T10:07:26.948Z,4.70
2018-02-12T10:12:30.444Z,4.90
2018-02-12T10:17:34.159Z,4.70
2018-02-12T10:22:36.804Z,4.70
2018-02-12T10:27:40.171Z,5.00
2018-02-12T10:32:42.790Z,5.00
2018-02-12T10:37:45.807Z,5.10
2018-02-12T10:42:48.427Z,5.30
2018-02-12T10:47:52.027Z,5.30
2018-02-12T10:52:54.651Z,5.20
2018-02-12T10:57:57.315Z,5.30
2018-02-12T11:02:59.939Z,5.50
2018-02-12T11:08:06.394Z,5.60
2018-02-12T11:13:09.651Z,5.50
2018-02-12T11:18:12.785Z,5.30
2018-02-12T11:23:15.393Z,5.10
2018-02-12T11:28:18.311Z,4.90
2018-02-12T11:33:20.938Z,5.10
2018-02-12T11:38:25.272Z,4.80
2018-02-12T11:43:27.890Z,4.80
2018-02-12T11:48:32.425Z,5.10
2018-02-12T11:53:35.838Z,5.20
2018-02-12T11:58:39.780Z,5.40
2018-02-12T12:03:43.167Z,5.50
2018-02-12T12:08:45.898Z,5.50
2018-02-12T12:13:49.298Z,5.50
2018-02-12T12:18:52.146Z,5.50
2018-02-12T12:23:54.814Z,5.20
2018-02-12T12:28:59.146Z,5.60
2018-02-12T12:34:02.550Z,5.50
2018-02-12T12:39:06.096Z,5.50
2018-02-12T12:44:08.702Z,5.20
2018-02-12T12:49:11.842Z,5.70
2018-02-12T12:54:14.430Z,5.60
2018-02-12T12:59:17.996Z,6.30
2018-02-12T13:04:20.627Z,7.10
2018-02-12T13:09:24.287Z,6.30
2018-02-12T13:14:26.941Z,6.30
2018-02-12T13:19:31.075Z,9.50
2018-02-12T13:24:34.447Z,8.30
2018-02-12T13:29:37.218Z,8.20
2018-02-12T13:34:39.852Z,6.20
2018-02-12T13:39:42.726Z,6.50
2018-02-12T13:44:45.310Z,9.00
2018-02-12T13:49:48.672Z,9.80
2018-02-12T13:54:51.285Z,11.20
2018-02-12T13:59:55.536Z,9.20
2018-02-12T14:04:58.908Z,9.70
2018-02-12T14:10:02.833Z,9.70
2018-02-12T14:15:05.430Z,9.50
2018-02-12T14:20:08.700Z,9.20
2018-02-12T14:25:12.099Z,7.20
2018-02-12T14:30:14.764Z,7.20
2018-02-12T14:35:17.464Z,6.80
2018-02-12T14:40:20.216Z,6.00
2018-02-12T14:45:23.640Z,5.40
2018-02-12T14:50:27.997Z,5.20
2018-02-12T14:55:30.577Z,5.10
2018-02-12T15:00:34.876Z,4.70
2018-02-12T15:05:38.265Z,4.60
2018-02-12T15:10:41.619Z,4.60
2018-02-12T15:15:45.023Z,4.90
2018-02-12T15:20:47.637Z,4.80
2018-02-12T15:25:50.263Z,4.80
2018-02-12T15:30:53.834Z,4.70
2018-02-12T15:35:56.491Z,4.60
2018-02-12T15:40:59.971Z,4.40
2018-02-12T15:46:02.603Z,4.30
2018-02-12T15:51:06.143Z,4.20
2018-02-12T15:56:08.737Z,4.10
2018-02-12T16:01:12.212Z,3.90
2018-02-12T16:06:14.825Z,3.60
2018-02-12T16:11:18.746Z,3.30
2018-02-12T16:16:22.184Z,3.10
2018-02-12T16:21:26.314Z,2.90
2018-02-12T16:26:28.940Z,2.90
2018-02-12T16:31:31.550Z,3.00
2018-02-12T16:36:34.326Z,2.90
2018-02-12T16:41:37.645Z,2.90
2018-02-12T16:46:40.256Z,2.70
2018-02-12T16:51:43.553Z,2.70
2018-02-12T16:56:46.239Z,2.70
2018-02-12T17:01:49.858Z,2.50
2018-02-12T17:06:52.529Z,2.40
2018-02-12T17:11:55.757Z,2.30
2018-02-12T17:16:59.167Z,2.20
2018-02-12T17:22:03.498Z,2.00
2018-02-12T17:27:06.205Z,1.90
2018-02-12T17:32:09.485Z,1.90
2018-02-12T17:37:12.306Z,1.80
2018-02-12T17:42:15.643Z,1.80
2018-02-12T17:47:19.088Z,1.60
2018-02-12T17:52:22.833Z,1.60
2018-02-12T17:57:25.559Z,1.50
2018-02-12T18:02:28.631Z,1.50
2018-02-12T18:07:31.281Z,1.40
2018-02-12T18:12:34.811Z,1.50
2018-02-12T18:17:38.255Z,1.40
2018-02-12T18:22:41.770Z,1.40
2018-02-12T18:27:44.387Z,1.40
2018-02-12T18:32:47.786Z,1.30
2018-02-12T18:37:50.424Z,1.30
2018-02-12T18:42:53.773Z,1.20
2018-02-12T18:47:56.367Z,1.20
2018-02-12T18:52:59.018Z,1.10
2018-02-12T18:58:01.645Z,1.00
2018-02-12T19:03:04.704Z,0.90
2018-02-12T19:08:08.046Z,0.90
2018-02-12T19:13:11.539Z,0.90
2018-02-12T19:18:14.344Z,0.80
2018-02-12T19:23:17.141Z,0.80
2018-02-12T19:28:20.554Z,0.70
2018-02-12T19:33:24.150Z,0.70
2018-02-12T19:38:26.879Z,0.70
2018-02-12T19:43:31.020Z,0.80
2018-02-12T19:48:33.720Z,0.80
2018-02-12T19:53:36.982Z,0.80
2018-02-12T19:58:39.595Z,0.90
2018-02-12T20:03:42.978Z,0.90
2018-02-12T20:08:45.646Z,0.90
2018-02-12T20:13:48.326Z,0.90
2018-02-12T20:18:51.733Z,0.80
2018-02-12T20:23:55.171Z,0.80
2018-02-12T20:28:58.534Z,0.90
2018-02-12T20:34:02.122Z,0.90
2018-02-12T20:39:04.894Z,0.80
2018-02-12T20:44:08.438Z,0.70
2018-02-12T20:49:11.901Z,0.70
2018-02-12T20:54:14.792Z,0.70
2018-02-12T20:59:17.460Z,0.60
2018-02-12T21:04:20.962Z,0.60
2018-02-12T21:09:24.371Z,0.60
2018-02-12T21:14:27.083Z,0.60
2018-02-12T21:19:30.466Z,0.60
2018-02-12T21:24:33.215Z,0.50
2018-02-12T21:29:36.222Z,0.50
2018-02-12T21:34:39.754Z,0.40
2018-02-12T21:39:42.390Z,0.40
2018-02-12T21:44:45.721Z,0.40
2018-02-12T21:49:48.505Z,0.40
2018-02-12T21:54:51.292Z,0.40
2018-02-12T21:59:53.958Z,0.30
2018-02-12T22:04:57.695Z,0.30
2018-02-12T22:10:00.382Z,0.30
2018-02-12T22:15:03.905Z,0.30
2018-02-12T22:20:07.425Z,0.30
2018-02-12T22:25:10.976Z,0.30
2018-02-12T22:30:13.609Z,0.30
2018-02-12T22:35:16.430Z,0.30
2018-02-12T22:40:19.858Z,0.10
2018-02-12T22:45:23.602Z,0.10
2018-02-12T22:50:26.270Z,0.10
2018-02-12T22:55:30.017Z,0.00
2018-02-12T23:00:32.755Z,0.00
2018-02-12T23:05:35.632Z,0.00
2018-02-12T23:10:38.322Z,-0.10
2018-02-12T23:15:41.656Z,-0.10
2018-02-12T23:20:44.336Z,-0.10
2018-02-12T23:25:48.504Z,-0.10
2018-02-12T23:30:51.196Z,-0.20
2018-02-12T23:35:54.136Z,-0.30
2018-02-12T23:40:56.771Z,-0.30
2018-02-12T23:46:01.005Z,-0.30
2018-02-12T23:51:04.408Z,-0.30
2018-02-12T23:56:08.739Z,-0.30
